sensor_id;sensor_type;location;lat;lon;timestamp;pressure;altitude;pressure_sealevel;temperature;humidity
35129;BME280;21301;43.626;10.580;2024-02-16T00:00:19;102070.94;;;7.64;100.00
35129;BME280;21301;43.626;10.580;2024-02-16T00:02:45;102069.06;;;7.68;100.00
35129;BME280;21301;43.626;10.580;2024-02-16T00:05:11;102070.88;;;7.66;100.00
35129;BME280;21301;43.626;10.580;2024-02-16T00:07:38;102073.56;;;7.64;100.00
35129;BME280;21301;43.626;10.580;2024-02-16T00:10:05;102068.66;;;7.57;100.00
35129;BME280;21301;43.626;10.580;2024-02-16T00:12:32;102072.13;;;7.57;100.00
35129;BME280;21301;43.626;10.580;2024-02-16T00:14:58;102068.75;;;7.55;100.00
35129;BME280;21301;43.626;10.580;2024-02-16T00:17:24;102065.06;;;7.59;100.00
35129;BME280;21301;43.626;10.580;2024-02-16T00:19:55;102063.81;;;7.68;100.00
35129;BME280;21301;43.626;10.580;2024-02-16T00:22:21;102062.00;;;7.70;100.00
35129;BME280;21301;43.626;10.580;2024-02-16T00:24:47;102055.88;;;7.69;100.00
35129;BME280;21301;43.626;10.580;2024-02-16T00:27:14;102054.41;;;7.64;100.00
35129;BME280;21301;43.626;10.580;2024-02-16T00:29:40;102046.81;;;7.58;100.00
35129;BME280;21301;43.626;10.580;2024-02-16T00:32:06;102046.25;;;7.50;100.00
35129;BME280;21301;43.626;10.580;2024-02-16T00:34:36;102042.28;;;7.41;100.00
35129;BME280;21301;43.626;10.580;2024-02-16T00:37:03;102042.19;;;7.42;100.00
35129;BME280;21301;43.626;10.580;2024-02-16T00:39:35;102043.94;;;7.43;100.00
35129;BME280;21301;43.626;10.580;2024-02-16T00:42:01;102039.34;;;7.49;100.00
35129;BME280;21301;43.626;10.580;2024-02-16T00:44:27;102047.13;;;7.50;100.00
35129;BME280;21301;43.626;10.580;2024-02-16T00:46:53;102045.19;;;7.55;100.00
35129;BME280;21301;43.626;10.580;2024-02-16T00:49:19;102040.84;;;7.54;100.00
35129;BME280;21301;43.626;10.580;2024-02-16T00:51:44;102046.13;;;7.53;100.00
35129;BME280;21301;43.626;10.580;2024-02-16T00:54:10;102043.47;;;7.54;100.00
35129;BME280;21301;43.626;10.580;2024-02-16T00:56:37;102039.84;;;7.57;100.00
35129;BME280;21301;43.626;10.580;2024-02-16T00:59:02;102038.16;;;7.56;100.00
35129;BME280;21301;43.626;10.580;2024-02-16T01:01:28;102039.16;;;7.53;100.00
35129;BME280;21301;43.626;10.580;2024-02-16T01:03:53;102039.94;;;7.55;100.00
35129;BME280;21301;43.626;10.580;2024-02-16T01:06:19;102033.03;;;7.53;100.00
35129;BME280;21301;43.626;10.580;2024-02-16T01:08:45;102030.66;;;7.48;100.00
35129;BME280;21301;43.626;10.580;2024-02-16T01:11:12;102040.97;;;7.51;100.00
35129;BME280;21301;43.626;10.580;2024-02-16T01:13:39;102035.19;;;7.43;100.00
35129;BME280;21301;43.626;10.580;2024-02-16T01:16:05;102031.88;;;7.39;100.00
35129;BME280;21301;43.626;10.580;2024-02-16T01:18:31;102037.44;;;7.32;100.00
35129;BME280;21301;43.626;10.580;2024-02-16T01:20:58;102037.34;;;7.33;100.00
35129;BME280;21301;43.626;10.580;2024-02-16T01:23:24;102041.59;;;7.36;100.00
35129;BME280;21301;43.626;10.580;2024-02-16T01:25:49;102048.94;;;7.28;100.00
35129;BME280;21301;43.626;10.580;2024-02-16T01:28:15;102050.56;;;7.30;100.00
35129;BME280;21301;43.626;10.580;2024-02-16T01:30:41;102043.56;;;7.31;100.00
35129;BME280;21301;43.626;10.580;2024-02-16T01:33:07;102042.66;;;7.32;100.00
35129;BME280;21301;43.626;10.580;2024-02-16T01:35:33;102031.59;;;7.25;100.00
35129;BME280;21301;43.626;10.580;2024-02-16T01:37:59;102029.03;;;7.23;100.00
35129;BME280;21301;43.626;10.580;2024-02-16T01:40:26;102022.25;;;7.19;100.00
35129;BME280;21301;43.626;10.580;2024-02-16T01:42:52;102024.06;;;7.17;100.00
35129;BME280;21301;43.626;10.580;2024-02-16T01:45:21;102018.84;;;7.17;100.00
35129;BME280;21301;43.626;10.580;2024-02-16T01:47:49;102022.44;;;7.15;100.00
35129;BME280;21301;43.626;10.580;2024-02-16T01:50:17;102018.75;;;7.19;100.00
35129;BME280;21301;43.626;10.580;2024-02-16T01:52:44;102022.25;;;7.19;100.00
35129;BME280;21301;43.626;10.580;2024-02-16T01:55:11;102026.22;;;7.28;100.00
35129;BME280;21301;43.626;10.580;2024-02-16T01:57:42;102020.88;;;7.31;100.00
35129;BME280;21301;43.626;10.580;2024-02-16T02:00:08;102021.22;;;7.44;100.00
35129;BME280;21301;43.626;10.580;2024-02-16T02:02:35;102016.78;;;7.46;100.00
35129;BME280;21301;43.626;10.580;2024-02-16T02:05:01;102011.53;;;7.46;100.00
35129;BME280;21301;43.626;10.580;2024-02-16T02:07:26;102006.22;;;7.47;100.00
35129;BME280;21301;43.626;10.580;2024-02-16T02:09:53;102012.09;;;7.53;100.00
35129;BME280;21301;43.626;10.580;2024-02-16T02:12:19;102006.16;;;7.49;100.00
35129;BME280;21301;43.626;10.580;2024-02-16T02:14:44;101997.00;;;7.39;100.00
35129;BME280;21301;43.626;10.580;2024-02-16T02:17:12;101989.06;;;7.40;100.00
35129;BME280;21301;43.626;10.580;2024-02-16T02:19:37;101991.63;;;7.42;100.00
35129;BME280;21301;43.626;10.580;2024-02-16T02:22:03;101988.81;;;7.26;100.00
35129;BME280;21301;43.626;10.580;2024-02-16T02:24:29;101988.22;;;7.19;100.00
35129;BME280;21301;43.626;10.580;2024-02-16T02:26:54;101981.13;;;7.01;100.00
35129;BME280;21301;43.626;10.580;2024-02-16T02:29:20;101987.75;;;6.88;100.00
35129;BME280;21301;43.626;10.580;2024-02-16T02:31:46;101989.88;;;6.78;100.00
35129;BME280;21301;43.626;10.580;2024-02-16T02:34:11;101973.97;;;6.84;100.00
35129;BME280;21301;43.626;10.580;2024-02-16T02:36:37;101978.66;;;6.76;100.00
35129;BME280;21301;43.626;10.580;2024-02-16T02:39:03;101975.97;;;6.77;100.00
35129;BME280;21301;43.626;10.580;2024-02-16T02:41:30;101969.94;;;6.75;100.00
35129;BME280;21301;43.626;10.580;2024-02-16T02:43:55;101979.44;;;6.78;100.00
35129;BME280;21301;43.626;10.580;2024-02-16T02:46:22;101974.69;;;6.66;100.00
35129;BME280;21301;43.626;10.580;2024-02-16T02:48:50;101978.22;;;6.65;100.00
35129;BME280;21301;43.626;10.580;2024-02-16T02:51:17;101978.47;;;6.58;100.00
35129;BME280;21301;43.626;10.580;2024-02-16T02:53:42;101976.03;;;6.54;100.00
35129;BME280;21301;43.626;10.580;2024-02-16T02:56:08;101974.34;;;6.53;100.00
35129;BME280;21301;43.626;10.580;2024-02-16T02:58:34;101971.47;;;6.59;100.00
35129;BME280;21301;43.626;10.580;2024-02-16T03:01:00;101971.41;;;6.60;100.00
35129;BME280;21301;43.626;10.580;2024-02-16T03:03:26;101962.84;;;6.57;100.00
35129;BME280;21301;43.626;10.580;2024-02-16T03:05:52;101968.25;;;6.52;100.00
35129;BME280;21301;43.626;10.580;2024-02-16T03:08:17;101971.53;;;6.57;100.00
35129;BME280;21301;43.626;10.580;2024-02-16T03:10:43;101967.16;;;6.58;100.00
35129;BME280;21301;43.626;10.580;2024-02-16T03:13:09;101967.03;;;6.61;100.00
35129;BME280;21301;43.626;10.580;2024-02-16T03:15:38;101964.31;;;6.64;100.00
35129;BME280;21301;43.626;10.580;2024-02-16T03:18:05;101958.16;;;6.65;100.00
35129;BME280;21301;43.626;10.580;2024-02-16T03:20:34;101964.41;;;6.61;100.00
35129;BME280;21301;43.626;10.580;2024-02-16T03:23:00;101966.31;;;6.57;100.00
35129;BME280;21301;43.626;10.580;2024-02-16T03:25:25;101962.41;;;6.68;100.00
35129;BME280;21301;43.626;10.580;2024-02-16T03:27:51;101955.50;;;6.67;100.00
35129;BME280;21301;43.626;10.580;2024-02-16T03:30:18;101959.94;;;6.65;100.00
35129;BME280;21301;43.626;10.580;2024-02-16T03:32:51;101955.69;;;6.62;100.00
35129;BME280;21301;43.626;10.580;2024-02-16T03:35:18;101959.28;;;6.59;100.00
35129;BME280;21301;43.626;10.580;2024-02-16T03:37:44;101959.44;;;6.55;100.00
35129;BME280;21301;43.626;10.580;2024-02-16T03:40:11;101956.84;;;6.55;100.00
35129;BME280;21301;43.626;10.580;2024-02-16T03:42:41;101954.28;;;6.53;100.00
35129;BME280;21301;43.626;10.580;2024-02-16T03:45:07;101957.00;;;6.50;100.00
35129;BME280;21301;43.626;10.580;2024-02-16T03:47:33;101952.88;;;6.45;100.00
35129;BME280;21301;43.626;10.580;2024-02-16T03:49:58;101954.22;;;6.33;100.00
35129;BME280;21301;43.626;10.580;2024-02-16T03:52:24;101954.88;;;6.38;100.00
35129;BME280;21301;43.626;10.580;2024-02-16T03:54:50;101950.19;;;6.46;100.00
35129;BME280;21301;43.626;10.580;2024-02-16T03:57:16;101961.44;;;6.48;100.00
35129;BME280;21301;43.626;10.580;2024-02-16T03:59:45;101958.78;;;6.50;100.00
35129;BME280;21301;43.626;10.580;2024-02-16T04:02:12;101962.06;;;6.55;100.00
35129;BME280;21301;43.626;10.580;2024-02-16T04:04:39;101963.41;;;6.65;100.00
35129;BME280;21301;43.626;10.580;2024-02-16T04:07:04;101961.25;;;6.75;100.00
35129;BME280;21301;43.626;10.580;2024-02-16T04:09:32;101968.31;;;6.73;100.00
35129;BME280;21301;43.626;10.580;2024-02-16T04:11:58;101970.13;;;6.71;100.00
35129;BME280;21301;43.626;10.580;2024-02-16T04:14:24;101967.78;;;6.65;100.00
35129;BME280;21301;43.626;10.580;2024-02-16T04:16:49;101966.19;;;6.60;100.00
35129;BME280;21301;43.626;10.580;2024-02-16T04:19:15;101966.94;;;6.64;100.00
35129;BME280;21301;43.626;10.580;2024-02-16T04:21:41;101960.81;;;6.64;100.00
35129;BME280;21301;43.626;10.580;2024-02-16T04:24:07;101962.69;;;6.61;100.00
35129;BME280;21301;43.626;10.580;2024-02-16T04:26:33;101966.22;;;6.59;100.00
35129;BME280;21301;43.626;10.580;2024-02-16T04:28:59;101962.69;;;6.61;100.00
35129;BME280;21301;43.626;10.580;2024-02-16T04:31:24;101974.06;;;6.59;100.00
35129;BME280;21301;43.626;10.580;2024-02-16T04:33:50;101975.84;;;6.58;100.00
35129;BME280;21301;43.626;10.580;2024-02-16T04:36:16;101970.56;;;6.60;100.00
35129;BME280;21301;43.626;10.580;2024-02-16T04:38:41;101968.81;;;6.60;100.00
35129;BME280;21301;43.626;10.580;2024-02-16T04:41:08;101970.75;;;6.55;100.00
35129;BME280;21301;43.626;10.580;2024-02-16T04:43:34;101961.00;;;6.59;100.00
35129;BME280;21301;43.626;10.580;2024-02-16T04:46:00;101968.09;;;6.57;100.00
35129;BME280;21301;43.626;10.580;2024-02-16T04:48:26;101973.31;;;6.57;100.00
35129;BME280;21301;43.626;10.580;2024-02-16T04:50:52;101972.38;;;6.58;100.00
35129;BME280;21301;43.626;10.580;2024-02-16T04:53:17;101981.16;;;6.57;100.00
35129;BME280;21301;43.626;10.580;2024-02-16T04:55:43;101975.19;;;6.53;100.00
35129;BME280;21301;43.626;10.580;2024-02-16T04:58:08;101977.56;;;6.59;100.00
35129;BME280;21301;43.626;10.580;2024-02-16T05:00:36;101972.50;;;6.55;100.00
35129;BME280;21301;43.626;10.580;2024-02-16T05:03:02;101972.69;;;6.50;100.00
35129;BME280;21301;43.626;10.580;2024-02-16T05:05:28;101972.38;;;6.58;100.00
35129;BME280;21301;43.626;10.580;2024-02-16T05:07:53;101974.16;;;6.57;100.00
35129;BME280;21301;43.626;10.580;2024-02-16T05:10:19;101960.91;;;6.62;100.00
35129;BME280;21301;43.626;10.580;2024-02-16T05:12:45;101962.72;;;6.60;100.00
35129;BME280;21301;43.626;10.580;2024-02-16T05:15:11;101957.44;;;6.61;100.00
35129;BME280;21301;43.626;10.580;2024-02-16T05:17:39;101960.97;;;6.60;100.00
35129;BME280;21301;43.626;10.580;2024-02-16T05:20:10;101955.00;;;6.57;100.00
35129;BME280;21301;43.626;10.580;2024-02-16T05:22:44;101953.38;;;6.54;100.00
35129;BME280;21301;43.626;10.580;2024-02-16T05:25:12;101955.91;;;6.56;100.00
35129;BME280;21301;43.626;10.580;2024-02-16T05:27:39;101953.44;;;6.53;100.00
35129;BME280;21301;43.626;10.580;2024-02-16T05:30:05;101958.03;;;6.46;100.00
35129;BME280;21301;43.626;10.580;2024-02-16T05:32:36;101947.84;;;6.40;100.00
35129;BME280;21301;43.626;10.580;2024-02-16T05:35:06;101937.44;;;6.38;100.00
35129;BME280;21301;43.626;10.580;2024-02-16T05:37:45;101943.59;;;6.37;100.00
35129;BME280;21301;43.626;10.580;2024-02-16T05:40:15;101950.19;;;6.46;100.00
35129;BME280;21301;43.626;10.580;2024-02-16T05:42:51;101955.91;;;6.56;100.00
35129;BME280;21301;43.626;10.580;2024-02-16T05:45:19;101949.66;;;6.60;100.00
35129;BME280;21301;43.626;10.580;2024-02-16T05:47:46;101950.50;;;6.60;100.00
35129;BME280;21301;43.626;10.580;2024-02-16T05:50:13;101944.63;;;6.55;100.00
35129;BME280;21301;43.626;10.580;2024-02-16T05:52:41;101948.19;;;6.53;100.00
35129;BME280;21301;43.626;10.580;2024-02-16T05:55:08;101949.19;;;6.50;100.00
35129;BME280;21301;43.626;10.580;2024-02-16T05:57:35;101958.03;;;6.46;100.00
35129;BME280;21301;43.626;10.580;2024-02-16T06:00:04;101957.97;;;6.48;100.00
35129;BME280;21301;43.626;10.580;2024-02-16T06:02:31;101957.81;;;6.52;100.00
35129;BME280;21301;43.626;10.580;2024-02-16T06:04:58;101966.63;;;6.50;100.00
35129;BME280;21301;43.626;10.580;2024-02-16T06:07:23;101963.84;;;6.54;100.00
35129;BME280;21301;43.626;10.580;2024-02-16T06:09:49;101967.16;;;6.58;100.00
35129;BME280;21301;43.626;10.580;2024-02-16T06:12:14;101966.19;;;6.60;100.00
35129;BME280;21301;43.626;10.580;2024-02-16T06:14:41;101960.97;;;6.60;100.00
35129;BME280;21301;43.626;10.580;2024-02-16T06:17:07;101969.16;;;6.51;100.00
35129;BME280;21301;43.626;10.580;2024-02-16T06:19:35;101959.75;;;6.47;100.00
35129;BME280;21301;43.626;10.580;2024-02-16T06:22:00;101966.13;;;6.40;100.00
35129;BME280;21301;43.626;10.580;2024-02-16T06:24:26;101964.41;;;6.39;100.00
35129;BME280;21301;43.626;10.580;2024-02-16T06:26:51;101971.28;;;6.42;100.00
35129;BME280;21301;43.626;10.580;2024-02-16T06:29:17;101970.31;;;6.44;100.00
35129;BME280;21301;43.626;10.580;2024-02-16T06:31:45;101971.94;;;6.47;100.00
35129;BME280;21301;43.626;10.580;2024-02-16T06:34:13;101976.19;;;6.49;100.00
35129;BME280;21301;43.626;10.580;2024-02-16T06:36:39;101979.59;;;6.51;100.00
35129;BME280;21301;43.626;10.580;2024-02-16T06:39:04;101983.81;;;6.55;100.00
35129;BME280;21301;43.626;10.580;2024-02-16T06:41:32;101976.91;;;6.54;100.00
35129;BME280;21301;43.626;10.580;2024-02-16T06:43:58;101991.66;;;6.55;100.00
35129;BME280;21301;43.626;10.580;2024-02-16T06:46:23;101991.66;;;6.55;100.00
35129;BME280;21301;43.626;10.580;2024-02-16T06:48:50;101989.16;;;6.52;100.00
35129;BME280;21301;43.626;10.580;2024-02-16T06:51:17;101981.81;;;6.40;100.00
35129;BME280;21301;43.626;10.580;2024-02-16T06:53:43;101986.41;;;6.33;100.00
35129;BME280;21301;43.626;10.580;2024-02-16T06:56:09;101985.31;;;6.39;100.00
35129;BME280;21301;43.626;10.580;2024-02-16T06:58:35;101987.06;;;6.38;100.00
35129;BME280;21301;43.626;10.580;2024-02-16T07:01:03;101987.03;;;6.40;100.00
35129;BME280;21301;43.626;10.580;2024-02-16T07:03:29;101991.47;;;6.38;100.00
35129;BME280;21301;43.626;10.580;2024-02-16T07:05:55;101991.03;;;6.49;100.00
35129;BME280;21301;43.626;10.580;2024-02-16T07:08:20;101997.00;;;6.52;100.00
35129;BME280;21301;43.626;10.580;2024-02-16T07:10:50;101993.47;;;6.53;100.00
35129;BME280;21301;43.626;10.580;2024-02-16T07:13:17;101991.66;;;6.55;100.00
35129;BME280;21301;43.626;10.580;2024-02-16T07:15:43;101995.69;;;6.64;100.00
35129;BME280;21301;43.626;10.580;2024-02-16T07:18:09;101998.03;;;6.70;100.00
35129;BME280;21301;43.626;10.580;2024-02-16T07:20:35;102007.91;;;6.86;100.00
35129;BME280;21301;43.626;10.580;2024-02-16T07:23:02;101997.13;;;6.93;100.00
35129;BME280;21301;43.626;10.580;2024-02-16T07:25:29;101997.81;;;6.98;100.00
35129;BME280;21301;43.626;10.580;2024-02-16T07:27:54;101994.81;;;7.08;100.00
35129;BME280;21301;43.626;10.580;2024-02-16T07:30:21;101997.16;;;7.14;100.00
35129;BME280;21301;43.626;10.580;2024-02-16T07:32:50;101989.91;;;7.20;100.00
35129;BME280;21301;43.626;10.580;2024-02-16T07:35:16;101983.28;;;7.34;100.00
35129;BME280;21301;43.626;10.580;2024-02-16T07:37:42;101995.31;;;7.58;100.00
35129;BME280;21301;43.626;10.580;2024-02-16T07:40:10;101994.97;;;7.66;100.00
35129;BME280;21301;43.626;10.580;2024-02-16T07:42:39;101996.84;;;7.83;100.00
35129;BME280;21301;43.626;10.580;2024-02-16T07:45:08;101997.91;;;8.18;100.00
35129;BME280;21301;43.626;10.580;2024-02-16T07:47:35;101997.63;;;8.43;100.00
35129;BME280;21301;43.626;10.580;2024-02-16T07:50:02;101996.78;;;8.62;100.00
35129;BME280;21301;43.626;10.580;2024-02-16T07:52:29;102008.06;;;8.64;100.00
35129;BME280;21301;43.626;10.580;2024-02-16T07:54:54;102003.28;;;8.72;100.00
35129;BME280;21301;43.626;10.580;2024-02-16T07:57:20;102004.66;;;8.98;100.00
35129;BME280;21301;43.626;10.580;2024-02-16T07:59:46;102006.84;;;9.07;100.00
35129;BME280;21301;43.626;10.580;2024-02-16T08:02:11;101992.56;;;9.30;100.00
35129;BME280;21301;43.626;10.580;2024-02-16T08:04:49;101992.03;;;9.41;100.00
35129;BME280;21301;43.626;10.580;2024-02-16T08:07:15;101996.63;;;9.71;100.00
35129;BME280;21301;43.626;10.580;2024-02-16T08:09:45;101994.81;;;9.89;100.00
35129;BME280;21301;43.626;10.580;2024-02-16T08:12:11;101996.78;;;9.68;100.00
35129;BME280;21301;43.626;10.580;2024-02-16T08:14:38;101993.75;;;9.75;100.00
35129;BME280;21301;43.626;10.580;2024-02-16T08:17:08;101996.44;;;9.91;100.00
35129;BME280;21301;43.626;10.580;2024-02-16T08:19:35;102003.91;;;10.15;100.00
35129;BME280;21301;43.626;10.580;2024-02-16T08:22:06;102004.03;;;10.13;100.00
35129;BME280;21301;43.626;10.580;2024-02-16T08:24:36;102001.66;;;10.24;100.00
35129;BME280;21301;43.626;10.580;2024-02-16T08:27:02;102004.50;;;10.53;100.00
35129;BME280;21301;43.626;10.580;2024-02-16T08:29:28;102008.16;;;10.66;100.00
35129;BME280;21301;43.626;10.580;2024-02-16T08:31:57;102012.41;;;10.69;100.00
35129;BME280;21301;43.626;10.580;2024-02-16T08:34:22;102011.19;;;10.91;100.00
35129;BME280;21301;43.626;10.580;2024-02-16T08:36:49;102017.44;;;11.04;100.00
35129;BME280;21301;43.626;10.580;2024-02-16T08:39:16;102012.59;;;11.12;100.00
35129;BME280;21301;43.626;10.580;2024-02-16T08:41:42;102012.28;;;11.02;100.00
35129;BME280;21301;43.626;10.580;2024-02-16T08:44:09;102011.88;;;11.24;100.00
35129;BME280;21301;43.626;10.580;2024-02-16T08:46:38;102008.34;;;11.40;100.00
35129;BME280;21301;43.626;10.580;2024-02-16T08:49:07;102005.47;;;11.59;100.00
35129;BME280;21301;43.626;10.580;2024-02-16T08:51:35;102006.53;;;11.70;100.00
35129;BME280;21301;43.626;10.580;2024-02-16T08:54:01;102001.69;;;11.93;100.00
35129;BME280;21301;43.626;10.580;2024-02-16T08:56:30;102009.28;;;12.12;100.00
35129;BME280;21301;43.626;10.580;2024-02-16T08:58:57;102004.53;;;12.46;100.00
35129;BME280;21301;43.626;10.580;2024-02-16T09:01:33;102007.78;;;12.36;100.00
35129;BME280;21301;43.626;10.580;2024-02-16T09:03:59;102017.38;;;12.23;100.00
35129;BME280;21301;43.626;10.580;2024-02-16T09:06:27;102010.53;;;12.21;100.00
35129;BME280;21301;43.626;10.580;2024-02-16T09:08:54;102015.97;;;12.46;100.00
35129;BME280;21301;43.626;10.580;2024-02-16T09:11:20;102018.56;;;12.61;100.00
35129;BME280;21301;43.626;10.580;2024-02-16T09:13:46;102013.91;;;12.91;100.00
35129;BME280;21301;43.626;10.580;2024-02-16T09:16:12;102017.47;;;12.77;100.00
35129;BME280;21301;43.626;10.580;2024-02-16T09:18:37;102014.13;;;12.88;100.00
35129;BME280;21301;43.626;10.580;2024-02-16T09:21:04;102010.78;;;12.72;100.00
35129;BME280;21301;43.626;10.580;2024-02-16T09:23:30;102016.78;;;12.61;100.00
35129;BME280;21301;43.626;10.580;2024-02-16T09:25:56;102028.97;;;12.76;99.93
35129;BME280;21301;43.626;10.580;2024-02-16T09:28:24;102017.16;;;12.55;97.59
35129;BME280;21301;43.626;10.580;2024-02-16T09:30:50;102015.72;;;12.64;100.00
35129;BME280;21301;43.626;10.580;2024-02-16T09:33:15;102018.56;;;12.61;99.82
35129;BME280;21301;43.626;10.580;2024-02-16T09:35:42;102024.88;;;12.58;100.00
35129;BME280;21301;43.626;10.580;2024-02-16T09:38:08;102027.13;;;12.64;100.00
35129;BME280;21301;43.626;10.580;2024-02-16T09:40:36;102029.66;;;12.66;99.39
35129;BME280;21301;43.626;10.580;2024-02-16T09:43:02;102029.41;;;12.56;98.99
35129;BME280;21301;43.626;10.580;2024-02-16T09:45:29;102020.78;;;12.67;99.57
35129;BME280;21301;43.626;10.580;2024-02-16T09:47:57;102020.88;;;12.79;99.62
35129;BME280;21301;43.626;10.580;2024-02-16T09:50:25;102027.78;;;12.95;99.52
35129;BME280;21301;43.626;10.580;2024-02-16T09:52:52;102021.25;;;12.73;98.11
35129;BME280;21301;43.626;10.580;2024-02-16T09:55:19;102021.22;;;12.88;98.69
35129;BME280;21301;43.626;10.580;2024-02-16T09:57:45;102015.28;;;12.84;97.87
35129;BME280;21301;43.626;10.580;2024-02-16T10:00:11;102018.28;;;12.92;98.63
35129;BME280;21301;43.626;10.580;2024-02-16T10:02:48;102021.25;;;13.00;97.30
35129;BME280;21301;43.626;10.580;2024-02-16T10:07:41;102019.88;;;12.95;98.13
35129;BME280;21301;43.626;10.580;2024-02-16T10:12:46;102023.81;;;13.42;99.14
35129;BME280;21301;43.626;10.580;2024-02-16T10:15:11;102027.19;;;13.44;97.71
35129;BME280;21301;43.626;10.580;2024-02-16T10:17:40;102023.41;;;13.48;96.77
35129;BME280;21301;43.626;10.580;2024-02-16T10:20:06;102028.78;;;13.47;96.42
35129;BME280;21301;43.626;10.580;2024-02-16T10:22:32;102021.16;;;13.42;97.43
35129;BME280;21301;43.626;10.580;2024-02-16T10:25:10;102014.41;;;13.38;96.78
35129;BME280;21301;43.626;10.580;2024-02-16T10:27:38;102025.31;;;13.46;98.53
35129;BME280;21301;43.626;10.580;2024-02-16T10:30:07;102017.06;;;13.51;98.10
35129;BME280;21301;43.626;10.580;2024-02-16T10:32:38;102016.44;;;13.60;97.87
35129;BME280;21301;43.626;10.580;2024-02-16T10:35:06;102017.28;;;13.73;98.07
35129;BME280;21301;43.626;10.580;2024-02-16T10:37:32;102017.31;;;13.86;97.99
35129;BME280;21301;43.626;10.580;2024-02-16T10:40:00;102015.72;;;13.83;97.45
35129;BME280;21301;43.626;10.580;2024-02-16T10:42:30;102019.09;;;13.73;96.25
35129;BME280;21301;43.626;10.580;2024-02-16T10:44:56;102013.38;;;13.79;97.00
35129;BME280;21301;43.626;10.580;2024-02-16T10:47:23;102014.63;;;13.73;97.33
35129;BME280;21301;43.626;10.580;2024-02-16T10:49:48;102013.81;;;13.85;98.05
35129;BME280;21301;43.626;10.580;2024-02-16T10:52:14;102004.50;;;13.93;98.86
35129;BME280;21301;43.626;10.580;2024-02-16T10:54:42;101999.00;;;13.96;98.80
35129;BME280;21301;43.626;10.580;2024-02-16T10:57:11;102008.50;;;13.98;97.88
35129;BME280;21301;43.626;10.580;2024-02-16T10:59:44;102004.25;;;14.09;96.84
35129;BME280;21301;43.626;10.580;2024-02-16T11:02:11;102004.16;;;13.97;97.42
35129;BME280;21301;43.626;10.580;2024-02-16T11:04:38;102009.00;;;14.16;98.02
35129;BME280;21301;43.626;10.580;2024-02-16T11:07:11;102004.97;;;14.23;96.77
35129;BME280;21301;43.626;10.580;2024-02-16T11:09:39;102003.91;;;14.39;95.96
35129;BME280;21301;43.626;10.580;2024-02-16T11:12:06;102001.53;;;14.47;96.16
35129;BME280;21301;43.626;10.580;2024-02-16T11:14:37;102006.09;;;14.58;95.80
35129;BME280;21301;43.626;10.580;2024-02-16T11:17:14;102003.38;;;14.70;95.16
35129;BME280;21301;43.626;10.580;2024-02-16T11:19:42;102001.31;;;14.87;95.96
35129;BME280;21301;43.626;10.580;2024-02-16T11:22:07;101991.66;;;14.86;95.65
35129;BME280;21301;43.626;10.580;2024-02-16T11:24:35;101995.03;;;14.88;94.97
35129;BME280;21301;43.626;10.580;2024-02-16T11:27:02;101994.81;;;14.67;95.04
35129;BME280;21301;43.626;10.580;2024-02-16T11:29:35;101995.03;;;14.64;95.55
35129;BME280;21301;43.626;10.580;2024-02-16T11:32:02;101993.31;;;14.76;96.27
35129;BME280;21301;43.626;10.580;2024-02-16T11:34:31;101988.81;;;14.65;95.09
35129;BME280;21301;43.626;10.580;2024-02-16T11:37:01;101987.50;;;14.70;94.69
35129;BME280;21301;43.626;10.580;2024-02-16T11:39:28;101988.41;;;14.82;94.84
35129;BME280;21301;43.626;10.580;2024-02-16T11:42:06;101983.69;;;14.75;93.38
35129;BME280;21301;43.626;10.580;2024-02-16T11:44:35;101972.63;;;14.81;93.20
35129;BME280;21301;43.626;10.580;2024-02-16T11:47:02;101974.94;;;14.85;93.71
35129;BME280;21301;43.626;10.580;2024-02-16T11:49:31;101975.59;;;14.76;93.04
35129;BME280;21301;43.626;10.580;2024-02-16T11:51:59;101960.78;;;14.74;94.18
35129;BME280;21301;43.626;10.580;2024-02-16T11:54:25;101960.69;;;14.75;93.69
35129;BME280;21301;43.626;10.580;2024-02-16T11:56:51;101967.91;;;14.73;93.29
35129;BME280;21301;43.626;10.580;2024-02-16T11:59:18;101955.00;;;14.68;92.76
35129;BME280;21301;43.626;10.580;2024-02-16T12:01:54;101952.22;;;14.46;92.94
35129;BME280;21301;43.626;10.580;2024-02-16T12:04:29;101945.72;;;14.50;93.38
35129;BME280;21301;43.626;10.580;2024-02-16T12:07:00;101952.81;;;14.49;93.22
35129;BME280;21301;43.626;10.580;2024-02-16T12:09:26;101942.00;;;14.53;94.05
35129;BME280;21301;43.626;10.580;2024-02-16T12:11:53;101946.59;;;14.51;93.47
35129;BME280;21301;43.626;10.580;2024-02-16T12:14:23;101947.13;;;14.56;93.47
35129;BME280;21301;43.626;10.580;2024-02-16T12:16:50;101939.19;;;14.56;93.11
35129;BME280;21301;43.626;10.580;2024-02-16T12:19:18;101938.50;;;14.65;93.83
35129;BME280;21301;43.626;10.580;2024-02-16T12:21:43;101935.50;;;14.69;92.97
35129;BME280;21301;43.626;10.580;2024-02-16T12:24:09;101939.63;;;14.74;92.87
35129;BME280;21301;43.626;10.580;2024-02-16T12:26:36;101936.97;;;14.74;91.07
35129;BME280;21301;43.626;10.580;2024-02-16T12:29:01;101940.00;;;14.80;89.78
35129;BME280;21301;43.626;10.580;2024-02-16T12:31:27;101939.28;;;14.78;87.75
35129;BME280;21301;43.626;10.580;2024-02-16T12:33:53;101936.22;;;14.72;86.05
35129;BME280;21301;43.626;10.580;2024-02-16T12:36:18;101937.69;;;14.76;85.48
35129;BME280;21301;43.626;10.580;2024-02-16T12:38:44;101944.34;;;14.81;85.80
35129;BME280;21301;43.626;10.580;2024-02-16T12:41:10;101939.66;;;14.85;86.12